Aérodrome :
LOGIN :

S'inscrire | Disclaimer

   EN    FR    IT 

 










Légende :    VFR   VFR Marginal   IFR   IFR Intensif   IFR Très Intensif
Visi : 
Plafond : 
>= 8 km
>= 3000ft
5 à 8 km
1000 à 3000 ft
1500m à 5 km
500 à 1000 ft
800 à 1500m
200 à 500 ft
< 800m
< 200 ft
Symboles :   Orages  Brouillard  Fortes neiges  Fortes précipitations  Vent > 20 kt
SIGMETs :   Divers  Orages  Givrage  Turbulence  Onde Orograph.  Cendres Volcan.






- Altitude de l'aérodrome : 1187 ft


LIBV - Gioia del Colle Bari

DERNIER METAR :
  • 040155Z 33011KT CAVOK 07/05 Q1011 RMK BKN SCT090 SCT200 VIS MIN 9999 WIND THR32 34014KT WIND THR14 32012KT BLU

METARs EXPIRÉS :
  • 040055Z 33010KT CAVOK 06/04 Q1011 RMK BKN FEW080 SCT200 VIS MIN 9999 WIND THR32 34013KT WIND THR14 32010KT BLU
  • 032355Z 35008KT CAVOK 06/05 Q1011 RMK BKN SCT080 SCT200 VIS MIN 9999 WIND THR32 36010KT WIND THR14 32011KT BLU

TAF TAF LIBV
Valide du 04 à 03h jusqu'au 04 à 12h UTC


040200Z 0403/0412 33011KT CAVOK
BECMG 0404/0405 9999 SCT025
BECMG 0407/0409 33016G26KT



MET'MAP, la Météo Aéronautique d'un coup d'oeil ! - Copyright ORBIFLY Décembre 2007 - Disclaimer

ORBIFLY MET'MAP TEAM :

Programmation & Développement : Alexandra Zaïnal
Sur une idée originale de : Baudouin d'Aumeries
Assistance à la programmation : Marc-Olivier Méhu
Soutien technique & logistique : Manuel Goepfert

Contact : metmap@orbifly.com




SOURCES & CREDITS :

   NOAA